sensor_id;sensor_type;location;lat;lon;timestamp;P1;durP1;ratioP1;P2;durP2;ratioP2
8632;SDS011;4354;49.832;10.746;2022-08-01T00:00:01;6.22;;;4.93;;
8632;SDS011;4354;49.832;10.746;2022-08-01T00:02:35;5.70;;;5.20;;
8632;SDS011;4354;49.832;10.746;2022-08-01T00:05:04;7.47;;;5.68;;
8632;SDS011;4354;49.832;10.746;2022-08-01T00:07:32;7.70;;;5.63;;
8632;SDS011;4354;49.832;10.746;2022-08-01T00:10:00;5.90;;;5.30;;
8632;SDS011;4354;49.832;10.746;2022-08-01T00:12:28;5.88;;;5.30;;
8632;SDS011;4354;49.832;10.746;2022-08-01T00:14:55;5.68;;;5.18;;
8632;SDS011;4354;49.832;10.746;2022-08-01T00:17:22;4.90;;;4.50;;
8632;SDS011;4354;49.832;10.746;2022-08-01T00:19:48;5.25;;;4.75;;
8632;SDS011;4354;49.832;10.746;2022-08-01T00:22:15;6.38;;;4.47;;
8632;SDS011;4354;49.832;10.746;2022-08-01T00:24:42;4.65;;;4.25;;
8632;SDS011;4354;49.832;10.746;2022-08-01T00:27:09;5.05;;;4.55;;
8632;SDS011;4354;49.832;10.746;2022-08-01T00:29:36;4.78;;;4.30;;
8632;SDS011;4354;49.832;10.746;2022-08-01T00:32:23;4.70;;;4.30;;
8632;SDS011;4354;49.832;10.746;2022-08-01T00:34:49;5.00;;;4.50;;
8632;SDS011;4354;49.832;10.746;2022-08-01T00:37:16;6.90;;;4.70;;
8632;SDS011;4354;49.832;10.746;2022-08-01T00:39:43;4.63;;;4.22;;
8632;SDS011;4354;49.832;10.746;2022-08-01T00:42:10;4.57;;;4.18;;
8632;SDS011;4354;49.832;10.746;2022-08-01T00:44:38;4.70;;;4.30;;
8632;SDS011;4354;49.832;10.746;2022-08-01T00:47:06;4.70;;;4.20;;
8632;SDS011;4354;49.832;10.746;2022-08-01T00:49:33;4.80;;;4.40;;
8632;SDS011;4354;49.832;10.746;2022-08-01T00:52:00;6.32;;;4.15;;
8632;SDS011;4354;49.832;10.746;2022-08-01T00:54:31;4.40;;;4.00;;
8632;SDS011;4354;49.832;10.746;2022-08-01T00:56:58;5.55;;;5.05;;
8632;SDS011;4354;49.832;10.746;2022-08-01T00:59:25;6.55;;;4.68;;
8632;SDS011;4354;49.832;10.746;2022-08-01T01:01:53;7.18;;;4.47;;
8632;SDS011;4354;49.832;10.746;2022-08-01T01:04:26;4.93;;;4.50;;
8632;SDS011;4354;49.832;10.746;2022-08-01T01:09:43;4.80;;;4.45;;
8632;SDS011;4354;49.832;10.746;2022-08-01T01:18:18;4.78;;;4.32;;
8632;SDS011;4354;49.832;10.746;2022-08-01T01:20:51;4.90;;;4.40;;
8632;SDS011;4354;49.832;10.746;2022-08-01T01:29:40;4.28;;;3.90;;
8632;SDS011;4354;49.832;10.746;2022-08-01T01:32:33;5.43;;;4.45;;
8632;SDS011;4354;49.832;10.746;2022-08-01T01:35:05;5.15;;;4.38;;
8632;SDS011;4354;49.832;10.746;2022-08-01T01:37:35;6.47;;;4.25;;
8632;SDS011;4354;49.832;10.746;2022-08-01T01:40:05;4.75;;;4.28;;
8632;SDS011;4354;49.832;10.746;2022-08-01T01:42:35;6.38;;;4.72;;
8632;SDS011;4354;49.832;10.746;2022-08-01T01:45:03;4.47;;;4.18;;
8632;SDS011;4354;49.832;10.746;2022-08-01T01:47:31;5.00;;;4.47;;
8632;SDS011;4354;49.832;10.746;2022-08-01T01:49:59;5.93;;;4.75;;
8632;SDS011;4354;49.832;10.746;2022-08-01T01:52:28;5.07;;;4.45;;
8632;SDS011;4354;49.832;10.746;2022-08-01T01:54:57;4.40;;;3.97;;
8632;SDS011;4354;49.832;10.746;2022-08-01T01:57:25;5.00;;;4.50;;
8632;SDS011;4354;49.832;10.746;2022-08-01T01:59:55;4.72;;;4.28;;
8632;SDS011;4354;49.832;10.746;2022-08-01T02:02:23;4.97;;;4.57;;
8632;SDS011;4354;49.832;10.746;2022-08-01T02:04:51;4.57;;;3.97;;
8632;SDS011;4354;49.832;10.746;2022-08-01T02:07:20;4.40;;;4.10;;
8632;SDS011;4354;49.832;10.746;2022-08-01T02:09:49;4.57;;;4.18;;
8632;SDS011;4354;49.832;10.746;2022-08-01T02:12:18;5.28;;;4.50;;
8632;SDS011;4354;49.832;10.746;2022-08-01T02:14:47;4.55;;;4.13;;
8632;SDS011;4354;49.832;10.746;2022-08-01T02:17:16;5.40;;;4.55;;
8632;SDS011;4354;49.832;10.746;2022-08-01T02:19:44;4.50;;;4.10;;
8632;SDS011;4354;49.832;10.746;2022-08-01T02:24:55;5.07;;;4.10;;
8632;SDS011;4354;49.832;10.746;2022-08-01T02:27:36;5.07;;;4.43;;
8632;SDS011;4354;49.832;10.746;2022-08-01T02:30:15;4.40;;;4.05;;
8632;SDS011;4354;49.832;10.746;2022-08-01T02:32:43;5.00;;;4.55;;
8632;SDS011;4354;49.832;10.746;2022-08-01T02:35:13;5.35;;;4.88;;
8632;SDS011;4354;49.832;10.746;2022-08-01T02:37:46;4.75;;;4.35;;
8632;SDS011;4354;49.832;10.746;2022-08-01T02:40:16;4.93;;;4.50;;
8632;SDS011;4354;49.832;10.746;2022-08-01T02:42:45;4.45;;;4.15;;
8632;SDS011;4354;49.832;10.746;2022-08-01T02:45:20;5.38;;;4.88;;
8632;SDS011;4354;49.832;10.746;2022-08-01T02:47:50;5.85;;;4.70;;
8632;SDS011;4354;49.832;10.746;2022-08-01T02:50:19;4.70;;;4.30;;
8632;SDS011;4354;49.832;10.746;2022-08-01T02:52:48;5.13;;;4.57;;
8632;SDS011;4354;49.832;10.746;2022-08-01T02:55:17;4.75;;;4.38;;
8632;SDS011;4354;49.832;10.746;2022-08-01T02:57:45;6.18;;;4.93;;
8632;SDS011;4354;49.832;10.746;2022-08-01T03:00:22;4.80;;;3.92;;
8632;SDS011;4354;49.832;10.746;2022-08-01T03:02:51;4.45;;;4.05;;
8632;SDS011;4354;49.832;10.746;2022-08-01T03:05:21;5.00;;;4.60;;
8632;SDS011;4354;49.832;10.746;2022-08-01T03:07:51;6.30;;;5.22;;
8632;SDS011;4354;49.832;10.746;2022-08-01T03:10:19;5.30;;;4.75;;
8632;SDS011;4354;49.832;10.746;2022-08-01T03:12:47;4.82;;;4.43;;
8632;SDS011;4354;49.832;10.746;2022-08-01T03:15:16;4.70;;;4.30;;
8632;SDS011;4354;49.832;10.746;2022-08-01T03:17:45;5.30;;;4.88;;
8632;SDS011;4354;49.832;10.746;2022-08-01T03:20:14;6.65;;;4.70;;
8632;SDS011;4354;49.832;10.746;2022-08-01T03:22:42;5.10;;;4.57;;
8632;SDS011;4354;49.832;10.746;2022-08-01T03:25:11;7.63;;;4.50;;
8632;SDS011;4354;49.832;10.746;2022-08-01T03:27:41;5.82;;;4.90;;
8632;SDS011;4354;49.832;10.746;2022-08-01T03:30:09;5.03;;;4.57;;
8632;SDS011;4354;49.832;10.746;2022-08-01T03:32:36;6.32;;;4.65;;
8632;SDS011;4354;49.832;10.746;2022-08-01T03:35:04;4.75;;;4.30;;
8632;SDS011;4354;49.832;10.746;2022-08-01T03:37:50;4.90;;;4.30;;
8632;SDS011;4354;49.832;10.746;2022-08-01T03:40:41;5.18;;;4.68;;
8632;SDS011;4354;49.832;10.746;2022-08-01T03:43:39;4.63;;;4.22;;
8632;SDS011;4354;49.832;10.746;2022-08-01T03:46:11;4.97;;;4.53;;
8632;SDS011;4354;49.832;10.746;2022-08-01T03:48:46;4.80;;;4.40;;
8632;SDS011;4354;49.832;10.746;2022-08-01T03:51:14;4.88;;;4.25;;
8632;SDS011;4354;49.832;10.746;2022-08-01T03:53:43;7.25;;;4.57;;
8632;SDS011;4354;49.832;10.746;2022-08-01T03:56:12;4.88;;;4.47;;
8632;SDS011;4354;49.832;10.746;2022-08-01T03:58:45;5.55;;;5.05;;
8632;SDS011;4354;49.832;10.746;2022-08-01T04:01:15;6.50;;;5.15;;
8632;SDS011;4354;49.832;10.746;2022-08-01T04:03:43;5.05;;;4.55;;
8632;SDS011;4354;49.832;10.746;2022-08-01T04:06:10;6.13;;;4.72;;
8632;SDS011;4354;49.832;10.746;2022-08-01T04:08:40;4.82;;;4.22;;
8632;SDS011;4354;49.832;10.746;2022-08-01T04:11:08;4.55;;;4.00;;
8632;SDS011;4354;49.832;10.746;2022-08-01T04:13:35;5.78;;;3.90;;
8632;SDS011;4354;49.832;10.746;2022-08-01T04:16:03;4.50;;;4.10;;
8632;SDS011;4354;49.832;10.746;2022-08-01T04:18:30;4.00;;;3.63;;
8632;SDS011;4354;49.832;10.746;2022-08-01T04:20:58;4.53;;;4.13;;
8632;SDS011;4354;49.832;10.746;2022-08-01T04:23:24;3.97;;;3.53;;
8632;SDS011;4354;49.832;10.746;2022-08-01T04:25:53;3.53;;;3.22;;
8632;SDS011;4354;49.832;10.746;2022-08-01T04:28:22;4.28;;;3.78;;
8632;SDS011;4354;49.832;10.746;2022-08-01T04:30:51;4.57;;;3.95;;
8632;SDS011;4354;49.832;10.746;2022-08-01T04:33:27;3.85;;;3.55;;
8632;SDS011;4354;49.832;10.746;2022-08-01T04:35:56;6.20;;;3.65;;
8632;SDS011;4354;49.832;10.746;2022-08-01T04:38:29;3.60;;;3.25;;
8632;SDS011;4354;49.832;10.746;2022-08-01T04:40:57;6.15;;;3.67;;
8632;SDS011;4354;49.832;10.746;2022-08-01T04:43:34;4.57;;;4.18;;
8632;SDS011;4354;49.832;10.746;2022-08-01T04:46:02;4.43;;;3.45;;
8632;SDS011;4354;49.832;10.746;2022-08-01T04:48:31;3.70;;;3.40;;
8632;SDS011;4354;49.832;10.746;2022-08-01T04:50:58;3.70;;;3.40;;
8632;SDS011;4354;49.832;10.746;2022-08-01T04:53:25;5.53;;;3.78;;
8632;SDS011;4354;49.832;10.746;2022-08-01T04:55:52;4.00;;;3.67;;
8632;SDS011;4354;49.832;10.746;2022-08-01T04:58:19;5.50;;;3.40;;
8632;SDS011;4354;49.832;10.746;2022-08-01T05:00:46;4.40;;;3.50;;
8632;SDS011;4354;49.832;10.746;2022-08-01T05:03:13;4.88;;;4.05;;
8632;SDS011;4354;49.832;10.746;2022-08-01T05:05:40;4.45;;;3.45;;
8632;SDS011;4354;49.832;10.746;2022-08-01T05:08:07;4.35;;;3.92;;
8632;SDS011;4354;49.832;10.746;2022-08-01T05:10:34;5.13;;;3.83;;
8632;SDS011;4354;49.832;10.746;2022-08-01T05:13:00;3.85;;;3.53;;
8632;SDS011;4354;49.832;10.746;2022-08-01T05:15:27;4.00;;;3.53;;
8632;SDS011;4354;49.832;10.746;2022-08-01T05:17:54;6.32;;;3.75;;
8632;SDS011;4354;49.832;10.746;2022-08-01T05:20:22;5.75;;;4.00;;
8632;SDS011;4354;49.832;10.746;2022-08-01T05:22:48;5.35;;;3.65;;
8632;SDS011;4354;49.832;10.746;2022-08-01T05:25:15;4.20;;;3.60;;
8632;SDS011;4354;49.832;10.746;2022-08-01T05:27:49;5.88;;;3.70;;
8632;SDS011;4354;49.832;10.746;2022-08-01T05:30:16;4.95;;;3.55;;
8632;SDS011;4354;49.832;10.746;2022-08-01T05:32:43;3.67;;;3.38;;
8632;SDS011;4354;49.832;10.746;2022-08-01T05:35:09;4.75;;;3.47;;
8632;SDS011;4354;49.832;10.746;2022-08-01T05:37:36;3.17;;;2.88;;
8632;SDS011;4354;49.832;10.746;2022-08-01T05:40:03;3.55;;;3.17;;
8632;SDS011;4354;49.832;10.746;2022-08-01T05:42:31;2.90;;;2.70;;
8632;SDS011;4354;49.832;10.746;2022-08-01T05:44:58;8.13;;;2.90;;
8632;SDS011;4354;49.832;10.746;2022-08-01T05:47:24;5.80;;;2.83;;
8632;SDS011;4354;49.832;10.746;2022-08-01T05:49:51;5.15;;;3.25;;
8632;SDS011;4354;49.832;10.746;2022-08-01T05:52:18;5.35;;;2.90;;
8632;SDS011;4354;49.832;10.746;2022-08-01T05:54:45;4.15;;;3.17;;
8632;SDS011;4354;49.832;10.746;2022-08-01T05:57:11;3.40;;;2.55;;
8632;SDS011;4354;49.832;10.746;2022-08-01T05:59:40;2.85;;;2.60;;
8632;SDS011;4354;49.832;10.746;2022-08-01T06:02:07;3.13;;;2.78;;
8632;SDS011;4354;49.832;10.746;2022-08-01T06:04:36;3.42;;;2.80;;
8632;SDS011;4354;49.832;10.746;2022-08-01T06:07:04;2.90;;;2.58;;
8632;SDS011;4354;49.832;10.746;2022-08-01T06:09:30;2.85;;;2.45;;
8632;SDS011;4354;49.832;10.746;2022-08-01T06:11:57;5.13;;;3.10;;
8632;SDS011;4354;49.832;10.746;2022-08-01T06:14:24;5.97;;;2.60;;
8632;SDS011;4354;49.832;10.746;2022-08-01T06:16:51;4.20;;;2.35;;
8632;SDS011;4354;49.832;10.746;2022-08-01T06:19:17;3.78;;;2.67;;
8632;SDS011;4354;49.832;10.746;2022-08-01T06:21:44;2.80;;;2.60;;
8632;SDS011;4354;49.832;10.746;2022-08-01T06:24:11;2.60;;;2.40;;
8632;SDS011;4354;49.832;10.746;2022-08-01T06:26:38;4.00;;;2.53;;
8632;SDS011;4354;49.832;10.746;2022-08-01T06:29:04;6.50;;;2.75;;
8632;SDS011;4354;49.832;10.746;2022-08-01T06:31:31;4.80;;;2.58;;
8632;SDS011;4354;49.832;10.746;2022-08-01T06:33:59;3.60;;;2.50;;
8632;SDS011;4354;49.832;10.746;2022-08-01T06:36:26;3.92;;;2.45;;
8632;SDS011;4354;49.832;10.746;2022-08-01T06:38:52;2.95;;;2.33;;
8632;SDS011;4354;49.832;10.746;2022-08-01T06:41:19;2.70;;;2.15;;
8632;SDS011;4354;49.832;10.746;2022-08-01T06:43:46;2.65;;;2.10;;
8632;SDS011;4354;49.832;10.746;2022-08-01T06:46:13;4.15;;;2.78;;
8632;SDS011;4354;49.832;10.746;2022-08-01T06:48:39;3.92;;;2.33;;
8632;SDS011;4354;49.832;10.746;2022-08-01T06:51:06;3.67;;;2.90;;
8632;SDS011;4354;49.832;10.746;2022-08-01T06:53:39;2.80;;;2.40;;
8632;SDS011;4354;49.832;10.746;2022-08-01T06:56:06;3.38;;;2.10;;
8632;SDS011;4354;49.832;10.746;2022-08-01T06:58:34;7.40;;;2.50;;
8632;SDS011;4354;49.832;10.746;2022-08-01T07:01:03;3.33;;;2.20;;
8632;SDS011;4354;49.832;10.746;2022-08-01T07:03:34;1.80;;;1.70;;
8632;SDS011;4354;49.832;10.746;2022-08-01T07:06:23;3.97;;;2.30;;
8632;SDS011;4354;49.832;10.746;2022-08-01T07:08:54;3.88;;;2.72;;
8632;SDS011;4354;49.832;10.746;2022-08-01T07:11:21;3.53;;;2.92;;
8632;SDS011;4354;49.832;10.746;2022-08-01T07:13:50;2.95;;;2.75;;
8632;SDS011;4354;49.832;10.746;2022-08-01T07:16:17;4.63;;;2.80;;
8632;SDS011;4354;49.832;10.746;2022-08-01T07:18:44;3.75;;;2.70;;
8632;SDS011;4354;49.832;10.746;2022-08-01T07:21:11;2.65;;;2.45;;
8632;SDS011;4354;49.832;10.746;2022-08-01T07:23:58;2.97;;;2.67;;
8632;SDS011;4354;49.832;10.746;2022-08-01T07:26:25;5.68;;;2.53;;
8632;SDS011;4354;49.832;10.746;2022-08-01T07:28:53;3.67;;;2.53;;
8632;SDS011;4354;49.832;10.746;2022-08-01T07:31:20;8.25;;;2.63;;
8632;SDS011;4354;49.832;10.746;2022-08-01T07:33:47;2.60;;;2.40;;
8632;SDS011;4354;49.832;10.746;2022-08-01T07:36:15;2.42;;;2.20;;
8632;SDS011;4354;49.832;10.746;2022-08-01T07:38:42;3.70;;;2.13;;
8632;SDS011;4354;49.832;10.746;2022-08-01T07:41:09;2.30;;;2.10;;
8632;SDS011;4354;49.832;10.746;2022-08-01T07:43:36;2.40;;;2.20;;
8632;SDS011;4354;49.832;10.746;2022-08-01T07:46:04;4.07;;;1.95;;
8632;SDS011;4354;49.832;10.746;2022-08-01T07:48:31;2.17;;;1.92;;
8632;SDS011;4354;49.832;10.746;2022-08-01T07:50:58;4.50;;;1.55;;
8632;SDS011;4354;49.832;10.746;2022-08-01T07:53:25;2.65;;;1.90;;
8632;SDS011;4354;49.832;10.746;2022-08-01T07:55:52;2.55;;;1.70;;
8632;SDS011;4354;49.832;10.746;2022-08-01T07:58:19;2.00;;;1.80;;
8632;SDS011;4354;49.832;10.746;2022-08-01T08:00:45;2.30;;;1.60;;
8632;SDS011;4354;49.832;10.746;2022-08-01T08:03:12;2.08;;;1.80;;
8632;SDS011;4354;49.832;10.746;2022-08-01T08:05:39;2.35;;;1.80;;
8632;SDS011;4354;49.832;10.746;2022-08-01T08:08:25;4.28;;;2.00;;
8632;SDS011;4354;49.832;10.746;2022-08-01T08:10:51;3.35;;;2.05;;
8632;SDS011;4354;49.832;10.746;2022-08-01T08:13:18;7.43;;;2.00;;
8632;SDS011;4354;49.832;10.746;2022-08-01T08:15:46;2.70;;;2.15;;
8632;SDS011;4354;49.832;10.746;2022-08-01T08:18:13;4.10;;;2.38;;
8632;SDS011;4354;49.832;10.746;2022-08-01T08:20:40;2.20;;;1.80;;
8632;SDS011;4354;49.832;10.746;2022-08-01T08:23:07;6.60;;;2.10;;
8632;SDS011;4354;49.832;10.746;2022-08-01T08:26:08;1.88;;;1.77;;
8632;SDS011;4354;49.832;10.746;2022-08-01T08:28:35;2.80;;;1.70;;
8632;SDS011;4354;49.832;10.746;2022-08-01T08:31:05;1.77;;;1.50;;
8632;SDS011;4354;49.832;10.746;2022-08-01T08:33:53;1.90;;;1.80;;
8632;SDS011;4354;49.832;10.746;2022-08-01T08:36:20;2.00;;;1.80;;
8632;SDS011;4354;49.832;10.746;2022-08-01T08:38:56;2.70;;;1.80;;
8632;SDS011;4354;49.832;10.746;2022-08-01T08:41:22;2.55;;;1.83;;
8632;SDS011;4354;49.832;10.746;2022-08-01T08:43:49;2.38;;;1.63;;
8632;SDS011;4354;49.832;10.746;2022-08-01T08:46:16;3.00;;;1.90;;
8632;SDS011;4354;49.832;10.746;2022-08-01T08:48:54;4.18;;;1.75;;
8632;SDS011;4354;49.832;10.746;2022-08-01T08:51:22;3.85;;;2.20;;
8632;SDS011;4354;49.832;10.746;2022-08-01T08:53:53;3.67;;;1.80;;
8632;SDS011;4354;49.832;10.746;2022-08-01T08:56:22;2.08;;;1.80;;
8632;SDS011;4354;49.832;10.746;2022-08-01T08:58:53;2.08;;;1.80;;
8632;SDS011;4354;49.832;10.746;2022-08-01T09:01:20;1.90;;;1.70;;
8632;SDS011;4354;49.832;10.746;2022-08-01T09:03:48;1.63;;;1.40;;
8632;SDS011;4354;49.832;10.746;2022-08-01T09:06:14;2.72;;;1.70;;
8632;SDS011;4354;49.832;10.746;2022-08-01T09:08:41;1.63;;;1.50;;
8632;SDS011;4354;49.832;10.746;2022-08-01T09:11:08;3.33;;;1.40;;
8632;SDS011;4354;49.832;10.746;2022-08-01T09:13:35;1.83;;;1.52;;
8632;SDS011;4354;49.832;10.746;2022-08-01T09:16:15;1.45;;;1.35;;
8632;SDS011;4354;49.832;10.746;2022-08-01T09:18:43;2.53;;;1.40;;
8632;SDS011;4354;49.832;10.746;2022-08-01T09:21:19;1.83;;;1.23;;
8632;SDS011;4354;49.832;10.746;2022-08-01T09:23:51;2.08;;;1.40;;
8632;SDS011;4354;49.832;10.746;2022-08-01T09:26:31;2.33;;;1.50;;
8632;SDS011;4354;49.832;10.746;2022-08-01T09:29:00;3.58;;;1.70;;
8632;SDS011;4354;49.832;10.746;2022-08-01T09:31:39;1.63;;;1.50;;
8632;SDS011;4354;49.832;10.746;2022-08-01T09:34:13;1.52;;;1.42;;
8632;SDS011;4354;49.832;10.746;2022-08-01T09:36:51;2.42;;;1.63;;
8632;SDS011;4354;49.832;10.746;2022-08-01T09:39:27;1.90;;;1.80;;
8632;SDS011;4354;49.832;10.746;2022-08-01T09:41:59;2.00;;;1.80;;
8632;SDS011;4354;49.832;10.746;2022-08-01T09:44:45;3.20;;;1.58;;
8632;SDS011;4354;49.832;10.746;2022-08-01T09:47:20;2.70;;;2.00;;
8632;SDS011;4354;49.832;10.746;2022-08-01T09:49:54;2.58;;;1.60;;
8632;SDS011;4354;49.832;10.746;2022-08-01T09:52:25;3.08;;;1.60;;
8632;SDS011;4354;49.832;10.746;2022-08-01T09:54:58;3.20;;;2.00;;
8632;SDS011;4354;49.832;10.746;2022-08-01T09:57:29;4.35;;;2.33;;
8632;SDS011;4354;49.832;10.746;2022-08-01T09:59:57;12.30;;;2.03;;
8632;SDS011;4354;49.832;10.746;2022-08-01T10:02:30;2.25;;;1.90;;
8632;SDS011;4354;49.832;10.746;2022-08-01T10:04:59;2.78;;;2.00;;
8632;SDS011;4354;49.832;10.746;2022-08-01T10:10:24;2.33;;;2.05;;
8632;SDS011;4354;49.832;10.746;2022-08-01T10:12:57;2.13;;;1.92;;
8632;SDS011;4354;49.832;10.746;2022-08-01T10:15:25;2.33;;;2.13;;
8632;SDS011;4354;49.832;10.746;2022-08-01T10:18:04;4.60;;;2.28;;
8632;SDS011;4354;49.832;10.746;2022-08-01T10:20:46;2.05;;;1.95;;
8632;SDS011;4354;49.832;10.746;2022-08-01T10:23:13;2.70;;;2.45;;
8632;SDS011;4354;49.832;10.746;2022-08-01T10:25:41;3.25;;;2.50;;
8632;SDS011;4354;49.832;10.746;2022-08-01T10:28:16;6.88;;;2.15;;
8632;SDS011;4354;49.832;10.746;2022-08-01T10:30:49;2.40;;;2.20;;
8632;SDS011;4354;49.832;10.746;2022-08-01T10:33:18;3.17;;;2.20;;
8632;SDS011;4354;49.832;10.746;2022-08-01T10:36:08;2.40;;;2.00;;
8632;SDS011;4354;49.832;10.746;2022-08-01T10:38:36;2.13;;;1.92;;
8632;SDS011;4354;49.832;10.746;2022-08-01T10:41:04;2.30;;;2.08;;
8632;SDS011;4354;49.832;10.746;2022-08-01T10:43:34;2.40;;;2.20;;
8632;SDS011;4354;49.832;10.746;2022-08-01T10:46:03;2.80;;;2.30;;
8632;SDS011;4354;49.832;10.746;2022-08-01T10:48:43;2.30;;;2.10;;
8632;SDS011;4354;49.832;10.746;2022-08-01T10:51:23;2.70;;;2.28;;
8632;SDS011;4354;49.832;10.746;2022-08-01T10:54:12;3.95;;;2.30;;
8632;SDS011;4354;49.832;10.746;2022-08-01T10:56:43;5.15;;;2.40;;
8632;SDS011;4354;49.832;10.746;2022-08-01T10:59:14;2.65;;;2.17;;
8632;SDS011;4354;49.832;10.746;2022-08-01T11:02:07;4.30;;;2.38;;
8632;SDS011;4354;49.832;10.746;2022-08-01T11:07:17;3.05;;;2.10;;
8632;SDS011;4354;49.832;10.746;2022-08-01T11:10:04;2.65;;;1.92;;
8632;SDS011;4354;49.832;10.746;2022-08-01T11:12:42;2.42;;;2.20;;
8632;SDS011;4354;49.832;10.746;2022-08-01T11:17:38;2.55;;;2.35;;
8632;SDS011;4354;49.832;10.746;2022-08-01T11:20:24;2.30;;;2.13;;
8632;SDS011;4354;49.832;10.746;2022-08-01T11:28:27;2.58;;;2.38;;
8632;SDS011;4354;49.832;10.746;2022-08-01T11:41:27;1.77;;;1.67;;
8632;SDS011;4354;49.832;10.746;2022-08-01T11:52:06;3.78;;;2.00;;
8632;SDS011;4354;49.832;10.746;2022-08-01T11:54:46;2.22;;;2.03;;
8632;SDS011;4354;49.832;10.746;2022-08-01T11:57:20;2.85;;;1.80;;
8632;SDS011;4354;49.832;10.746;2022-08-01T12:00:00;1.80;;;1.70;;
8632;SDS011;4354;49.832;10.746;2022-08-01T12:02:40;2.10;;;1.50;;
8632;SDS011;4354;49.832;10.746;2022-08-01T12:05:11;1.58;;;1.48;;
8632;SDS011;4354;49.832;10.746;2022-08-01T12:07:41;2.50;;;1.40;;
8632;SDS011;4354;49.832;10.746;2022-08-01T12:10:10;1.30;;;1.20;;
8632;SDS011;4354;49.832;10.746;2022-08-01T12:12:45;1.40;;;1.30;;
8632;SDS011;4354;49.832;10.746;2022-08-01T12:15:13;4.50;;;1.50;;
8632;SDS011;4354;49.832;10.746;2022-08-01T12:17:44;1.60;;;1.27;;
8632;SDS011;4354;49.832;10.746;2022-08-01T12:20:31;2.00;;;1.40;;
8632;SDS011;4354;49.832;10.746;2022-08-01T12:23:03;1.73;;;1.35;;
8632;SDS011;4354;49.832;10.746;2022-08-01T12:25:34;2.25;;;1.20;;
8632;SDS011;4354;49.832;10.746;2022-08-01T12:28:02;1.58;;;1.30;;
8632;SDS011;4354;49.832;10.746;2022-08-01T12:30:31;2.45;;;1.30;;
8632;SDS011;4354;49.832;10.746;2022-08-01T12:33:06;1.48;;;1.38;;
8632;SDS011;4354;49.832;10.746;2022-08-01T12:35:35;1.42;;;1.33;;
8632;SDS011;4354;49.832;10.746;2022-08-01T12:38:04;1.33;;;1.23;;
8632;SDS011;4354;49.832;10.746;2022-08-01T12:40:39;1.15;;;1.15;;
8632;SDS011;4354;49.832;10.746;2022-08-01T12:43:14;1.25;;;1.20;;
8632;SDS011;4354;49.832;10.746;2022-08-01T12:45:52;1.40;;;1.30;;
8632;SDS011;4354;49.832;10.746;2022-08-01T12:48:22;1.42;;;1.33;;
8632;SDS011;4354;49.832;10.746;2022-08-01T12:50:50;1.80;;;1.20;;
8632;SDS011;4354;49.832;10.746;2022-08-01T12:53:18;1.30;;;1.20;;
8632;SDS011;4354;49.832;10.746;2022-08-01T12:55:53;2.05;;;1.10;;
8632;SDS011;4354;49.832;10.746;2022-08-01T12:58:29;1.60;;;1.27;;
8632;SDS011;4354;49.832;10.746;2022-08-01T13:01:04;1.83;;;1.20;;
8632;SDS011;4354;49.832;10.746;2022-08-01T13:03:32;1.48;;;1.38;;
8632;SDS011;4354;49.832;10.746;2022-08-01T13:06:09;5.28;;;1.52;;
8632;SDS011;4354;49.832;10.746;2022-08-01T13:08:38;2.97;;;1.63;;
8632;SDS011;4354;49.832;10.746;2022-08-01T13:11:09;1.63;;;1.52;;
8632;SDS011;4354;49.832;10.746;2022-08-01T13:13:42;1.90;;;1.80;;
8632;SDS011;4354;49.832;10.746;2022-08-01T13:16:14;1.60;;;1.50;;
8632;SDS011;4354;49.832;10.746;2022-08-01T13:18:59;3.13;;;1.73;;
8632;SDS011;4354;49.832;10.746;2022-08-01T13:21:28;1.63;;;1.35;;
8632;SDS011;4354;49.832;10.746;2022-08-01T13:24:15;1.48;;;1.38;;
8632;SDS011;4354;49.832;10.746;2022-08-01T13:26:49;1.70;;;1.60;;
8632;SDS011;4354;49.832;10.746;2022-08-01T13:29:18;1.38;;;1.27;;
8632;SDS011;4354;49.832;10.746;2022-08-01T13:31:46;1.80;;;1.70;;
8632;SDS011;4354;49.832;10.746;2022-08-01T13:34:14;1.80;;;1.70;;
8632;SDS011;4354;49.832;10.746;2022-08-01T13:36:41;1.90;;;1.70;;
8632;SDS011;4354;49.832;10.746;2022-08-01T13:39:14;1.95;;;1.85;;
8632;SDS011;4354;49.832;10.746;2022-08-01T13:42:00;2.08;;;1.80;;
8632;SDS011;4354;49.832;10.746;2022-08-01T13:44:27;3.53;;;1.85;;
8632;SDS011;4354;49.832;10.746;2022-08-01T13:46:53;3.20;;;1.92;;
8632;SDS011;4354;49.832;10.746;2022-08-01T13:49:22;4.22;;;1.92;;
8632;SDS011;4354;49.832;10.746;2022-08-01T13:51:49;1.83;;;1.73;;
8632;SDS011;4354;49.832;10.746;2022-08-01T13:54:17;1.98;;;1.85;;
8632;SDS011;4354;49.832;10.746;2022-08-01T13:56:44;2.00;;;1.80;;
8632;SDS011;4354;49.832;10.746;2022-08-01T13:59:11;1.60;;;1.50;;
8632;SDS011;4354;49.832;10.746;2022-08-01T14:01:38;2.83;;;1.80;;
8632;SDS011;4354;49.832;10.746;2022-08-01T14:04:05;4.00;;;1.80;;
8632;SDS011;4354;49.832;10.746;2022-08-01T14:06:32;1.98;;;1.67;;
8632;SDS011;4354;49.832;10.746;2022-08-01T14:09:01;1.92;;;1.83;;
8632;SDS011;4354;49.832;10.746;2022-08-01T14:11:43;1.75;;;1.65;;
8632;SDS011;4354;49.832;10.746;2022-08-01T14:14:11;1.90;;;1.80;;
8632;SDS011;4354;49.832;10.746;2022-08-01T14:16:42;2.08;;;1.95;;
8632;SDS011;4354;49.832;10.746;2022-08-01T14:19:11;1.55;;;1.45;;
8632;SDS011;4354;49.832;10.746;2022-08-01T14:21:38;1.98;;;1.88;;
8632;SDS011;4354;49.832;10.746;2022-08-01T14:24:05;1.90;;;1.80;;
8632;SDS011;4354;49.832;10.746;2022-08-01T14:26:32;2.08;;;1.98;;
8632;SDS011;4354;49.832;10.746;2022-08-01T14:29:01;1.80;;;1.70;;
8632;SDS011;4354;49.832;10.746;2022-08-01T14:31:28;2.00;;;1.90;;
8632;SDS011;4354;49.832;10.746;2022-08-01T14:33:59;2.08;;;1.88;;
8632;SDS011;4354;49.832;10.746;2022-08-01T14:36:26;2.35;;;1.75;;
8632;SDS011;4354;49.832;10.746;2022-08-01T14:38:56;1.63;;;1.52;;
8632;SDS011;4354;49.832;10.746;2022-08-01T14:41:26;2.08;;;1.88;;
8632;SDS011;4354;49.832;10.746;2022-08-01T14:43:53;1.73;;;1.60;;
8632;SDS011;4354;49.832;10.746;2022-08-01T14:46:20;1.95;;;1.75;;
8632;SDS011;4354;49.832;10.746;2022-08-01T14:48:46;2.10;;;1.90;;
8632;SDS011;4354;49.832;10.746;2022-08-01T14:51:13;2.85;;;2.08;;
8632;SDS011;4354;49.832;10.746;2022-08-01T14:53:40;2.13;;;1.60;;
8632;SDS011;4354;49.832;10.746;2022-08-01T14:56:16;1.95;;;1.80;;
8632;SDS011;4354;49.832;10.746;2022-08-01T14:58:43;3.67;;;2.00;;
8632;SDS011;4354;49.832;10.746;2022-08-01T15:01:10;2.42;;;2.10;;
8632;SDS011;4354;49.832;10.746;2022-08-01T15:03:37;2.92;;;2.08;;
8632;SDS011;4354;49.832;10.746;2022-08-01T15:06:04;3.10;;;1.80;;
8632;SDS011;4354;49.832;10.746;2022-08-01T15:08:32;2.40;;;2.10;;
8632;SDS011;4354;49.832;10.746;2022-08-01T15:10:59;2.38;;;2.13;;
8632;SDS011;4354;49.832;10.746;2022-08-01T15:13:27;4.03;;;1.90;;
8632;SDS011;4354;49.832;10.746;2022-08-01T15:15:54;2.80;;;1.98;;
8632;SDS011;4354;49.832;10.746;2022-08-01T15:18:25;3.03;;;1.83;;
8632;SDS011;4354;49.832;10.746;2022-08-01T15:20:53;2.63;;;1.85;;
8632;SDS011;4354;49.832;10.746;2022-08-01T15:23:21;2.90;;;2.05;;
8632;SDS011;4354;49.832;10.746;2022-08-01T15:25:47;2.17;;;1.90;;
8632;SDS011;4354;49.832;10.746;2022-08-01T15:28:14;5.50;;;2.05;;
8632;SDS011;4354;49.832;10.746;2022-08-01T15:30:41;2.40;;;2.20;;
8632;SDS011;4354;49.832;10.746;2022-08-01T15:33:08;2.75;;;1.90;;
8632;SDS011;4354;49.832;10.746;2022-08-01T15:35:35;1.75;;;1.65;;
8632;SDS011;4354;49.832;10.746;2022-08-01T15:38:02;2.00;;;1.77;;
8632;SDS011;4354;49.832;10.746;2022-08-01T15:40:29;1.70;;;1.60;;
8632;SDS011;4354;49.832;10.746;2022-08-01T15:42:59;2.03;;;1.92;;
8632;SDS011;4354;49.832;10.746;2022-08-01T15:45:25;4.00;;;2.00;;
8632;SDS011;4354;49.832;10.746;2022-08-01T15:48:12;2.90;;;2.15;;
8632;SDS011;4354;49.832;10.746;2022-08-01T15:50:39;2.60;;;2.10;;
8632;SDS011;4354;49.832;10.746;2022-08-01T15:53:06;2.25;;;2.03;;
8632;SDS011;4354;49.832;10.746;2022-08-01T15:55:36;2.58;;;1.70;;
8632;SDS011;4354;49.832;10.746;2022-08-01T15:58:06;2.88;;;2.03;;
8632;SDS011;4354;49.832;10.746;2022-08-01T16:00:37;2.08;;;1.98;;
8632;SDS011;4354;49.832;10.746;2022-08-01T16:03:06;2.35;;;2.10;;
8632;SDS011;4354;49.832;10.746;2022-08-01T16:05:35;1.98;;;1.88;;
8632;SDS011;4354;49.832;10.746;2022-08-01T16:08:09;2.17;;;2.00;;